Time;durP1;ratioP1;P1;durP2;ratioP2;P2;SDS_P1;SDS_P2;PMS_P1;PMS_P2;Temp;Humidity;BMP_temperature;BMP_pressure;BME280_temperature;BME280_humidity;BME280_pressure;Samples;Min_cycle;Max_cycle;Signal;HPM_P1;HPM_P2
2022/11/02 00:01:39;;;;;;;0.40;0.20;;;;;;;14.04;56.54;95955.25;5133662;27;20433;-53
2022/11/02 00:04:08;;;;;;;0.40;0.20;;;;;;;14.51;56.69;96035.53;5133981;27;20561;-53
2022/11/02 00:06:36;;;;;;;0.40;0.30;;;;;;;14.38;57.32;96043.34;5133510;27;20441;-53
2022/11/02 00:09:04;;;;;;;0.80;0.50;;;;;;;14.36;57.23;96040.16;5133507;27;20434;-54
2022/11/02 00:11:33;;;;;;;0.40;0.20;;;;;;;14.51;56.76;96032.06;5133531;27;20427;-53
2022/11/02 00:14:02;;;;;;;0.40;0.20;;;;;;;14.02;56.75;95968.84;5133437;27;20432;-53
2022/11/02 00:16:32;;;;;;;0.50;0.30;;;;;;;14.25;57.60;96033.25;5133783;27;20421;-53
2022/11/02 00:19:03;;;;;;;0.50;0.43;;;;;;;13.45;59.74;96037.78;5133543;27;20434;-53
2022/11/02 00:21:32;;;;;;;0.40;0.30;;;;;;;13.89;58.48;96044.06;5133727;27;20431;-53
2022/11/02 00:24:01;;;;;;;0.40;0.30;;;;;;;14.05;58.42;96041.34;5132954;27;20434;-53
2022/11/02 00:26:30;;;;;;;0.40;0.30;;;;;;;14.11;58.02;96038.41;5132833;27;20478;-53
2022/11/02 00:28:58;;;;;;;0.40;0.40;;;;;;;14.15;58.20;96033.28;5133359;27;20434;-53
2022/11/02 00:31:28;;;;;;;0.40;0.20;;;;;;;14.02;57.30;96006.16;5133382;27;20572;-53
2022/11/02 00:33:56;;;;;;;0.40;0.30;;;;;;;14.19;57.45;96027.16;5133444;27;20882;-53
2022/11/02 00:36:26;;;;;;;0.40;0.20;;;;;;;14.14;57.62;96027.16;5133761;27;20448;-53
2022/11/02 00:38:54;;;;;;;0.50;0.50;;;;;;;14.22;57.48;96028.47;5133702;27;20430;-53
2022/11/02 00:41:23;;;;;;;2.87;0.63;;;;;;;14.10;57.71;96022.66;5132818;27;20419;-53
2022/11/02 00:43:51;;;;;;;0.40;0.20;;;;;;;14.18;57.99;96019.41;5133602;27;20814;-53
2022/11/02 00:46:20;;;;;;;0.40;0.20;;;;;;;14.22;57.60;96018.59;5133075;27;20433;-53
2022/11/02 00:48:50;;;;;;;0.40;0.20;;;;;;;14.09;58.02;96021.06;5133133;27;20422;-54
2022/11/02 00:51:18;;;;;;;1.70;1.70;;;;;;;13.93;58.22;96015.81;5132957;27;20486;-53
2022/11/02 00:53:47;;;;;;;0.50;0.40;;;;;;;13.77;58.91;96016.13;5132986;27;20435;-53
2022/11/02 00:56:15;;;;;;;0.60;0.50;;;;;;;13.62;59.62;96016.16;5132809;27;20436;-53
2022/11/02 00:58:43;;;;;;;0.40;0.20;;;;;;;13.01;62.28;96018.91;5133366;27;20859;-53
2022/11/02 01:01:11;;;;;;;0.60;0.40;;;;;;;12.40;64.77;96020.72;5132922;27;20437;-53
2022/11/02 01:03:40;;;;;;;0.50;0.47;;;;;;;12.12;68.78;96023.84;5133257;27;20436;-53
2022/11/02 01:06:12;;;;;;;0.90;0.90;;;;;;;11.82;75.53;96021.88;5132131;27;20838;-53
2022/11/02 01:08:41;;;;;;;0.40;0.30;;;;;;;12.27;73.35;96023.09;5132869;27;20438;-53
2022/11/02 01:11:12;;;;;;;0.53;0.33;;;;;;;12.89;69.21;96017.56;5132830;27;20473;-53
2022/11/02 01:13:40;;;;;;;0.60;0.40;;;;;;;13.26;66.87;96012.78;5132954;27;20439;-53
2022/11/02 01:16:09;;;;;;;0.40;0.30;;;;;;;13.23;66.50;96011.47;5112228;28;20457;-53
2022/11/02 01:18:38;;;;;;;0.40;0.30;;;;;;;12.99;66.42;95983.78;5112327;28;20433;-53
2022/11/02 01:21:07;;;;;;;0.40;0.20;;;;;;;13.20;66.54;96004.03;5111922;28;20434;-53
2022/11/02 01:23:39;;;;;;;0.40;0.30;;;;;;;13.44;65.16;95998.91;5112150;28;20425;-53
2022/11/02 01:26:09;;;;;;;1.30;0.80;;;;;;;13.51;63.63;95994.09;5111951;28;20845;-53
2022/11/02 01:28:38;;;;;;;1.13;0.80;;;;;;;13.47;62.99;95997.56;5112430;28;20448;-53
2022/11/02 01:31:08;;;;;;;0.57;0.40;;;;;;;13.34;62.81;95998.94;5111687;28;20492;-53
2022/11/02 01:33:36;;;;;;;0.40;0.30;;;;;;;13.36;62.58;95999.44;5112382;28;20435;-53
2022/11/02 01:36:06;;;;;;;0.50;0.50;;;;;;;13.43;62.92;95997.34;5112326;28;20422;-53
2022/11/02 01:38:35;;;;;;;0.50;0.40;;;;;;;13.45;63.06;95997.84;5112192;28;20446;-53
2022/11/02 01:41:04;;;;;;;0.60;0.40;;;;;;;13.44;63.62;95993.59;5112049;28;20965;-53
2022/11/02 01:43:35;;;;;;;0.50;0.30;;;;;;;13.45;63.70;95991.72;5111136;28;20426;-53
2022/11/02 01:46:07;;;;;;;0.40;0.27;;;;;;;13.35;63.61;96003.19;5111892;28;20435;-53
2022/11/02 01:48:41;;;;;;;0.40;0.20;;;;;;;13.25;63.15;96006.69;5111859;28;20790;-53
2022/11/02 01:51:14;;;;;;;1.37;0.83;;;;;;;13.33;62.54;95998.13;5112045;28;21005;-53
2022/11/02 01:53:45;;;;;;;1.10;0.30;;;;;;;13.11;63.61;96002.16;5112342;28;20432;-53
2022/11/02 01:56:18;;;;;;;0.40;0.40;;;;;;;13.13;63.52;96005.38;5110644;28;20426;-53
2022/11/02 01:58:52;;;;;;;0.63;0.63;;;;;;;12.76;63.98;95963.03;5111875;28;20469;-53
2022/11/02 02:01:20;;;;;;;1.00;0.40;;;;;;;12.88;64.31;96005.31;5112167;28;20475;-53
2022/11/02 02:03:49;;;;;;;0.47;0.40;;;;;;;12.88;65.40;96008.78;5111967;28;20455;-53
2022/11/02 02:06:17;;;;;;;1.53;0.70;;;;;;;12.98;64.91;96006.13;5111914;28;20925;-53
2022/11/02 02:08:49;;;;;;;0.40;0.30;;;;;;;12.99;64.75;96007.75;5111429;28;20457;-53
2022/11/02 02:11:31;;;;;;;1.00;0.90;;;;;;;12.73;66.26;96014.13;5112333;28;20467;-53
2022/11/02 02:14:02;;;;;;;0.40;0.30;;;;;;;12.82;66.44;96004.56;5115859;28;20791;-53
2022/11/02 02:16:54;;;;;;;0.50;0.30;;;;;;;12.74;67.39;96003.22;5115440;28;20439;-53
2022/11/02 02:19:37;;;;;;;0.40;0.30;;;;;;;11.46;66.84;95811.16;5115325;28;20853;-53
2022/11/02 02:22:20;;;;;;;0.40;0.30;;;;;;;12.72;66.29;96010.66;5115058;28;20437;-53
2022/11/02 02:24:58;;;;;;;0.40;0.30;;;;;;;12.63;65.59;96012.25;5114721;28;20437;-53
2022/11/02 02:27:35;;;;;;;0.70;0.70;;;;;;;12.40;64.57;95933.00;5115105;28;20429;-53
2022/11/02 02:30:09;;;;;;;1.63;1.40;;;;;;;12.93;63.89;96008.78;5115500;28;20430;-53
2022/11/02 02:32:45;;;;;;;0.60;0.30;;;;;;;12.92;63.95;96022.38;5115407;28;20481;-53
2022/11/02 02:35:25;;;;;;;0.60;0.60;;;;;;;12.79;64.01;96009.59;5115120;28;20761;-53
2022/11/02 02:37:58;;;;;;;0.70;0.67;;;;;;;11.40;63.82;95783.03;5114909;28;20434;-53
2022/11/02 02:40:33;;;;;;;0.40;0.30;;;;;;;12.64;64.04;96011.19;5115472;28;20430;-53
2022/11/02 02:43:06;;;;;;;0.50;0.40;;;;;;;12.77;63.37;96014.38;5115451;28;20946;-53
2022/11/02 02:45:38;;;;;;;2.23;1.57;;;;;;;12.78;62.91;95992.84;5115221;28;20465;-53
2022/11/02 02:48:11;;;;;;;0.50;0.33;;;;;;;12.91;62.86;96010.13;5115051;28;20426;-53
2022/11/02 02:50:44;;;;;;;0.60;0.50;;;;;;;12.82;62.57;96017.06;5114819;28;20818;-53
2022/11/02 02:53:15;;;;;;;0.70;0.40;;;;;;;12.66;63.45;96009.06;5115106;28;20431;-52
2022/11/02 02:55:46;;;;;;;0.40;0.30;;;;;;;12.66;63.17;96014.38;5114740;28;20754;-52
2022/11/02 02:58:21;;;;;;;1.10;0.77;;;;;;;12.77;62.66;96015.97;5114444;28;20763;-52
2022/11/02 03:00:52;;;;;;;0.40;0.30;;;;;;;12.78;62.47;96016.78;5114646;28;20922;-52
2022/11/02 03:03:24;;;;;;;1.80;1.20;;;;;;;12.59;62.64;96019.16;5114761;28;20422;-52
2022/11/02 03:06:04;;;;;;;0.40;0.30;;;;;;;12.36;63.33;96001.06;5114033;27;20962;-52
2022/11/02 03:08:33;;;;;;;0.40;0.20;;;;;;;12.59;63.09;96018.38;5114639;28;20834;-52
2022/11/02 03:11:12;;;;;;;0.40;0.20;;;;;;;12.58;62.71;96009.59;5114682;28;20467;-53
2022/11/02 03:13:50;;;;;;;0.60;0.40;;;;;;;12.59;62.58;96013.84;5114406;27;20433;-53
2022/11/02 03:16:36;;;;;;;1.33;0.30;;;;;;;12.56;62.42;96019.69;5114478;28;20429;-53
2022/11/02 03:19:14;;;;;;;1.30;0.67;;;;;;;12.56;61.88;96018.88;5114403;27;20425;-53
2022/11/02 03:21:45;;;;;;;0.40;0.30;;;;;;;12.61;62.22;96022.34;5114326;28;20430;-52
2022/11/02 03:24:19;;;;;;;0.40;0.30;;;;;;;12.51;62.51;96009.06;5114247;28;20791;-52
2022/11/02 03:26:53;;;;;;;0.40;0.20;;;;;;;12.54;61.89;96015.69;5113946;28;20484;-52
2022/11/02 03:29:26;;;;;;;0.40;0.30;;;;;;;12.58;62.15;96014.09;5113892;28;20434;-52
2022/11/02 03:31:59;;;;;;;0.40;0.20;;;;;;;12.67;61.22;96010.66;5114295;28;20468;-52
2022/11/02 03:34:32;;;;;;;0.40;0.30;;;;;;;12.61;61.89;96021.56;5113846;28;20436;-52
2022/11/02 03:37:08;;;;;;;0.40;0.20;;;;;;;12.67;61.81;96015.97;5114048;28;20422;-52
2022/11/02 03:39:45;;;;;;;1.33;1.30;;;;;;;12.50;62.32;95983.50;5113637;28;20438;-52
2022/11/02 03:42:17;;;;;;;0.50;0.30;;;;;;;12.55;62.00;96012.75;5113684;28;20442;-52
2022/11/02 03:44:49;;;;;;;0.40;0.20;;;;;;;12.54;62.00;96016.50;5113000;28;20427;-52
2022/11/02 03:47:21;;;;;;;0.50;0.30;;;;;;;12.56;61.89;96011.72;5113584;28;20435;-52
2022/11/02 03:49:52;;;;;;;0.50;0.37;;;;;;;12.55;61.55;96007.44;5113645;28;20435;-52
2022/11/02 03:52:26;;;;;;;0.40;0.20;;;;;;;12.53;61.69;96006.91;5113697;28;20466;-52
2022/11/02 03:55:03;;;;;;;0.40;0.30;;;;;;;11.83;62.01;95911.13;5113438;28;20444;-52
2022/11/02 03:57:37;;;;;;;1.43;0.60;;;;;;;12.42;62.39;96018.59;5124399;27;20428;-52
2022/11/02 04:00:11;;;;;;;0.40;0.20;;;;;;;12.31;62.41;96014.34;5134025;27;20428;-53
2022/11/02 04:02:42;;;;;;;0.67;0.67;;;;;;;12.37;62.24;96010.59;5133597;27;20437;-53
2022/11/02 04:05:11;;;;;;;0.40;0.20;;;;;;;12.42;61.98;96010.63;5133661;27;20436;-52
2022/11/02 04:10:28;;;;;;;0.40;0.30;;;;;;;12.21;63.46;96013.50;5132877;27;20425;-52
2022/11/02 04:15:43;;;;;;;0.50;0.37;;;;;;;12.09;63.74;96019.06;5133846;27;20434;-53
2022/11/02 04:20:58;;;;;;;0.40;0.30;;;;;;;11.89;65.58;96011.03;5133330;27;20432;-52
2022/11/02 04:26:12;;;;;;;0.40;0.20;;;;;;;11.18;68.47;96021.22;5133343;27;20470;-52
2022/11/02 04:28:40;;;;;;;0.40;0.30;;;;;;;10.93;70.97;96020.25;5133819;27;20437;-53
2022/11/02 04:31:11;;;;;;;0.43;0.30;;;;;;;11.06;70.26;96017.16;5133693;27;20793;-53
2022/11/02 04:33:41;;;;;;;0.60;0.60;;;;;;;11.00;71.39;96021.66;5133149;27;20823;-53
2022/11/02 04:36:11;;;;;;;0.40;0.30;;;;;;;11.39;69.89;96008.88;5133066;27;20506;-52
2022/11/02 04:38:40;;;;;;;0.40;0.20;;;;;;;11.67;67.68;96016.47;5133662;27;20458;-53
2022/11/02 04:44:13;;;;;;;0.40;0.37;;;;;;;11.38;69.44;96008.06;5069634;28;20453;-53
2022/11/02 04:46:42;;;;;;;0.50;0.43;;;;;;;11.28;71.09;96015.19;5069382;28;20944;-52
2022/11/02 04:49:13;;;;;;;0.40;0.27;;;;;;;11.40;70.97;96013.94;5099705;27;20516;-53
2022/11/02 04:51:41;;;;;;;0.60;0.40;;;;;;;11.33;72.11;96016.00;5132993;27;20435;-52
2022/11/02 04:54:16;;;;;;;1.27;0.70;;;;;;;11.06;73.94;96015.31;5133039;27;20473;-52
2022/11/02 04:56:45;;;;;;;0.67;0.67;;;;;;;10.70;79.50;96000.97;5132943;27;20437;-52
2022/11/02 04:59:13;;;;;;;0.40;0.40;;;;;;;10.53;81.89;95994.19;5133246;27;20434;-53
2022/11/02 05:01:41;;;;;;;0.50;0.40;;;;;;;10.28;85.66;96026.56;5133294;27;20425;-53
2022/11/02 05:04:10;;;;;;;0.60;0.40;;;;;;;10.70;84.12;96026.72;5132990;27;20504;-52
2022/11/02 05:06:41;;;;;;;0.87;0.53;;;;;;;11.00;80.83;96021.66;5133292;27;20438;-53
2022/11/02 05:09:10;;;;;;;0.60;0.60;;;;;;;10.96;81.51;96023.19;5132989;27;20437;-53
2022/11/02 05:11:38;;;;;;;1.90;0.60;;;;;;;11.14;76.90;96028.09;5132752;27;20458;-53
2022/11/02 05:14:06;;;;;;;0.83;0.70;;;;;;;10.84;73.26;95961.56;5132790;27;20836;-53
2022/11/02 05:16:34;;;;;;;1.10;1.10;;;;;;;11.16;74.19;96031.28;5132652;27;20421;-53
2022/11/02 05:19:03;;;;;;;0.50;0.40;;;;;;;11.31;72.22;96030.59;5132634;27;20619;-54
2022/11/02 05:21:36;;;;;;;0.40;0.27;;;;;;;11.52;70.97;96028.84;5132602;27;20430;-53
2022/11/02 05:24:07;;;;;;;0.40;0.30;;;;;;;11.54;72.02;96038.16;5132956;27;20438;-54
2022/11/02 05:26:35;;;;;;;0.40;0.30;;;;;;;11.70;70.50;96031.09;5132284;27;20480;-53
2022/11/02 05:29:04;;;;;;;0.40;0.30;;;;;;;11.76;72.30;96040.72;5132337;27;20425;-53
2022/11/02 05:31:32;;;;;;;0.90;0.90;;;;;;;11.88;69.93;96038.63;5132618;27;20921;-52
2022/11/02 05:34:00;;;;;;;0.50;0.40;;;;;;;11.88;69.91;96028.00;5132383;27;20587;-52
2022/11/02 05:36:28;;;;;;;0.87;0.50;;;;;;;12.13;69.68;96035.25;5132123;27;20941;-53
2022/11/02 05:38:57;;;;;;;0.40;0.30;;;;;;;11.76;69.56;96022.13;5132637;27;20433;-53
2022/11/02 05:41:26;;;;;;;0.70;0.53;;;;;;;12.17;69.81;96039.78;5132204;27;20984;-53
2022/11/02 05:43:55;;;;;;;2.80;0.63;;;;;;;12.66;66.98;96040.19;5132356;27;20441;-53
2022/11/02 05:46:23;;;;;;;0.40;0.30;;;;;;;12.99;65.89;96038.88;5133071;27;20418;-53
2022/11/02 05:48:51;;;;;;;0.40;0.30;;;;;;;13.43;64.36;96039.13;5136362;27;20440;-53
2022/11/02 05:51:19;;;;;;;1.27;0.83;;;;;;;13.61;63.92;96042.00;5136134;27;20559;-53
2022/11/02 05:53:48;;;;;;;0.40;0.30;;;;;;;13.90;63.33;96044.88;5135595;27;20476;-54
2022/11/02 05:56:16;;;;;;;2.50;2.40;;;;;;;13.90;63.59;96044.88;5136780;27;20431;-54
2022/11/02 05:58:54;;;;;;;0.77;0.70;;;;;;;13.78;64.97;96047.84;5136413;27;20421;-54
2022/11/02 06:01:22;;;;;;;0.80;0.60;;;;;;;13.95;64.77;96042.97;5136835;27;20433;-53
2022/11/02 06:03:51;;;;;;;0.90;0.90;;;;;;;14.26;63.66;96049.00;5135966;27;20495;-54
2022/11/02 06:06:21;;;;;;;0.50;0.40;;;;;;;13.98;63.12;95991.81;5136403;27;20490;-56
2022/11/02 06:08:50;;;;;;;1.20;0.77;;;;;;;14.00;62.89;95979.00;5136053;27;20441;-53
2022/11/02 06:11:18;;;;;;;4.53;0.60;;;;;;;14.45;62.54;96054.50;5135953;27;20809;-54
2022/11/02 06:13:51;;;;;;;1.07;0.97;;;;;;;14.57;62.48;96039.00;5136054;27;20538;-54
2022/11/02 06:16:20;;;;;;;0.70;0.70;;;;;;;15.10;60.85;96056.72;5136327;27;20426;-55
2022/11/02 06:18:50;;;;;;;0.70;0.70;;;;;;;15.50;59.48;96057.50;5135995;27;20976;-55
2022/11/02 06:21:19;;;;;;;1.17;1.07;;;;;;;15.54;59.10;96066.53;5135886;27;20429;-55
2022/11/02 06:23:47;;;;;;;0.83;0.83;;;;;;;16.10;57.48;96054.19;5135847;27;20433;-55
2022/11/02 06:26:16;;;;;;;1.73;1.27;;;;;;;16.11;57.61;96057.66;5135524;27;20481;-55
2022/11/02 06:28:44;;;;;;;2.87;0.80;;;;;;;15.81;59.16;96064.16;5135707;27;20438;-56
2022/11/02 06:31:15;;;;;;;0.73;0.70;;;;;;;16.35;57.25;96063.75;5135735;27;20428;-56
2022/11/02 06:33:45;;;;;;;0.97;0.97;;;;;;;16.45;57.29;96051.06;5135832;27;20503;-56
2022/11/02 06:36:13;;;;;;;0.77;0.77;;;;;;;16.74;56.22;96060.88;5135779;27;20907;-57
2022/11/02 06:38:42;;;;;;;0.50;0.40;;;;;;;16.96;55.46;96053.84;5136162;27;20417;-58
2022/11/02 06:41:11;;;;;;;0.63;0.50;;;;;;;17.23;54.24;96061.16;5135186;27;20430;-58
2022/11/02 06:43:39;;;;;;;0.70;0.57;;;;;;;17.14;54.13;96012.03;5135783;27;20791;-58
2022/11/02 06:46:08;;;;;;;0.57;0.40;;;;;;;17.35;53.34;96061.53;5135804;27;20431;-58
2022/11/02 06:48:36;;;;;;;0.73;0.73;;;;;;;17.13;53.45;96058.66;5135449;27;20434;-58
2022/11/02 06:51:06;;;;;;;1.47;0.50;;;;;;;17.27;53.88;96059.50;5135164;27;20906;-56
2022/11/02 06:53:35;;;;;;;1.30;1.20;;;;;;;17.52;52.58;96048.41;5135256;27;20483;-56
2022/11/02 06:56:03;;;;;;;0.90;0.80;;;;;;;17.78;52.55;96049.50;5135135;27;20431;-56
2022/11/02 06:58:32;;;;;;;0.70;0.70;;;;;;;17.92;52.07;96032.63;5134912;27;20453;-56
2022/11/02 07:01:02;;;;;;;1.80;0.97;;;;;;;18.61;51.17;96051.09;5135025;27;20437;-55
2022/11/02 07:03:31;;;;;;;6.00;0.70;;;;;;;18.70;50.29;96046.59;5135435;27;20423;-55
2022/11/02 07:05:59;;;;;;;0.80;0.80;;;;;;;19.12;50.04;96041.88;5134520;27;20552;-55
2022/11/02 07:08:29;;;;;;;0.50;0.50;;;;;;;19.60;49.83;96029.41;5135086;27;20426;-56
2022/11/02 07:10:58;;;;;;;1.47;1.47;;;;;;;20.76;48.99;96004.59;5134799;27;20440;-55
2022/11/02 07:13:26;;;;;;;1.03;1.03;;;;;;;20.70;45.90;96032.78;5134335;27;20476;-55
2022/11/02 07:15:55;;;;;;;0.70;0.50;;;;;;;20.13;46.46;96027.44;5134618;27;20430;-55
2022/11/02 07:18:23;;;;;;;3.43;0.47;;;;;;;21.17;45.38;96029.19;5135130;27;20813;-55
2022/11/02 07:20:51;;;;;;;0.47;0.40;;;;;;;20.57;44.48;96012.16;5134336;27;20455;-55
2022/11/02 07:23:22;;;;;;;7.53;2.00;;;;;;;21.46;43.91;96031.19;5135208;27;20430;-55
2022/11/02 07:25:52;;;;;;;0.50;0.50;;;;;;;21.47;43.79;96027.38;5134580;27;20886;-55
2022/11/02 07:28:21;;;;;;;1.07;0.57;;;;;;;21.65;43.65;96022.75;5134969;27;20431;-55
2022/11/02 07:30:49;;;;;;;0.93;0.90;;;;;;;21.14;43.55;96026.31;5134776;27;20437;-55
2022/11/02 07:33:18;;;;;;;0.60;0.60;;;;;;;21.19;43.65;96008.09;5134573;27;20981;-56
2022/11/02 07:35:46;;;;;;;9.00;1.17;;;;;;;21.79;43.84;96012.53;5134604;27;20825;-54
2022/11/02 07:38:14;;;;;;;1.90;1.80;;;;;;;21.82;42.27;95995.69;5133981;27;20437;-53
2022/11/02 07:40:43;;;;;;;0.77;0.67;;;;;;;22.13;41.40;96007.03;5134241;27;20457;-53
2022/11/02 07:43:12;;;;;;;1.73;1.63;;;;;;;21.94;41.37;96006.63;5134589;27;20427;-53
2022/11/02 07:45:41;;;;;;;1.60;1.00;;;;;;;21.83;41.72;95994.59;5134140;27;20423;-53
2022/11/02 07:48:09;;;;;;;1.73;1.63;;;;;;;22.08;40.90;96002.59;5134368;27;20441;-53
2022/11/02 07:50:37;;;;;;;8.33;0.50;;;;;;;22.52;41.03;95993.13;5134038;27;20437;-52
2022/11/02 07:53:05;;;;;;;0.60;0.50;;;;;;;23.20;40.46;95996.41;5133886;27;20430;-52
2022/11/02 07:55:34;;;;;;;1.70;0.87;;;;;;;23.98;38.66;95989.06;5133816;27;20503;-52
2022/11/02 07:58:04;;;;;;;0.50;0.30;;;;;;;25.22;36.87;95978.13;5134188;27;20431;-53
2022/11/02 08:00:36;;;;;;;0.67;0.40;;;;;;;25.84;35.65;95971.22;5134054;27;20438;-52
2022/11/02 08:03:05;;;;;;;0.50;0.50;;;;;;;25.53;35.35;95968.50;5134441;27;20915;-52
2022/11/02 08:05:35;;;;;;;0.50;0.47;;;;;;;25.88;34.92;95965.91;5133685;27;20821;-53
2022/11/02 08:08:06;;;;;;;0.50;0.40;;;;;;;26.33;34.12;95967.03;5133984;27;20434;-52
2022/11/02 08:10:36;;;;;;;1.57;0.60;;;;;;;26.20;34.04;95957.41;5133018;27;20457;-52
2022/11/02 08:13:07;;;;;;;0.50;0.43;;;;;;;26.74;34.01;95954.69;5132776;27;20506;-53
2022/11/02 08:15:37;;;;;;;1.20;1.13;;;;;;;26.17;32.76;95949.16;5133393;27;20470;-51
2022/11/02 08:18:08;;;;;;;2.40;1.30;;;;;;;26.41;33.50;95957.09;5133825;27;20795;-52
2022/11/02 08:20:36;;;;;;;0.40;0.30;;;;;;;27.24;31.57;95891.19;5133341;27;20914;-52
2022/11/02 08:23:06;;;;;;;0.40;0.40;;;;;;;27.84;31.06;95935.84;5133560;27;20914;-52
2022/11/02 08:25:34;;;;;;;0.40;0.33;;;;;;;26.96;31.71;95940.44;5132904;27;20466;-53
2022/11/02 08:28:04;;;;;;;0.67;0.67;;;;;;;26.59;32.62;95933.03;5133008;27;20435;-52
2022/11/02 08:30:33;;;;;;;1.23;1.00;;;;;;;26.69;31.90;95937.91;5132987;27;20491;-52
2022/11/02 08:33:05;;;;;;;5.33;1.83;;;;;;;26.60;31.60;95931.84;5133557;27;20927;-52
2022/11/02 08:35:36;;;;;;;1.10;0.53;;;;;;;27.15;31.89;95936.13;5133137;27;20541;-52
2022/11/02 08:38:04;;;;;;;1.37;1.27;;;;;;;27.37;31.02;95924.50;5133387;27;20439;-52
2022/11/02 08:40:34;;;;;;;2.57;0.57;;;;;;;27.64;30.63;95916.06;5133410;27;20492;-52
2022/11/02 08:43:04;;;;;;;0.93;0.90;;;;;;;27.15;32.25;95930.69;5133157;27;20929;-52
2022/11/02 08:45:33;;;;;;;0.77;0.50;;;;;;;27.04;32.64;95930.47;5133085;27;20431;-51
2022/11/02 08:48:23;;;;;;;0.70;0.50;;;;;;;28.19;30.36;95919.28;5132980;27;20430;-52
2022/11/02 08:50:51;;;;;;;3.23;0.43;;;;;;;29.84;29.49;95908.78;5133309;27;20891;-52
2022/11/02 08:53:20;;;;;;;0.90;0.70;;;;;;;29.28;30.31;95903.56;5132957;27;20438;-51
2022/11/02 08:55:48;;;;;;;1.07;0.50;;;;;;;29.50;29.15;95900.66;5132873;27;20465;-51
2022/11/02 08:58:17;;;;;;;1.07;1.07;;;;;;;29.24;29.67;95898.06;5133179;27;20431;-51
2022/11/02 09:00:45;;;;;;;0.90;0.60;;;;;;;28.72;30.76;95892.75;5132643;27;20480;-52
2022/11/02 09:03:15;;;;;;;0.70;0.60;;;;;;;28.55;33.79;95841.47;5132922;27;20434;-52
2022/11/02 09:05:57;;;;;;;0.83;0.73;;;;;;;30.16;29.07;95885.19;5132666;27;20518;-52
2022/11/02 09:08:26;;;;;;;2.00;0.30;;;;;;;30.06;27.80;95881.22;5133220;27;20466;-51
2022/11/02 09:10:59;;;;;;;2.73;1.07;;;;;;;29.83;28.18;95885.38;5132777;27;20475;-51
2022/11/02 09:13:28;;;;;;;1.00;1.00;;;;;;;29.34;29.35;95880.22;5133257;27;20431;-52
2022/11/02 09:15:58;;;;;;;0.97;0.97;;;;;;;29.73;28.90;95864.94;5132805;27;20485;-51
2022/11/02 09:18:27;;;;;;;0.50;0.40;;;;;;;30.27;27.62;95866.91;5132766;27;20427;-52
2022/11/02 09:20:57;;;;;;;0.70;0.50;;;;;;;30.38;27.88;95858.78;5132499;27;20432;-52
2022/11/02 09:23:25;;;;;;;0.50;0.50;;;;;;;30.19;28.26;95822.31;5132572;27;20906;-51
2022/11/02 09:25:53;;;;;;;0.50;0.50;;;;;;;29.84;28.78;95860.38;5132594;27;20485;-53
2022/11/02 09:28:22;;;;;;;2.20;0.50;;;;;;;30.23;28.42;95848.91;5132258;27;20431;-52
2022/11/02 09:30:50;;;;;;;0.50;0.50;;;;;;;29.66;28.63;95848.50;5132726;27;20418;-52
2022/11/02 09:33:19;;;;;;;0.60;0.50;;;;;;;29.64;27.82;95845.38;5132554;27;20422;-52
2022/11/02 09:35:49;;;;;;;0.53;0.50;;;;;;;30.87;30.73;95837.09;5132369;27;20473;-52
2022/11/02 09:38:19;;;;;;;0.50;0.50;;;;;;;30.39;26.59;95833.78;5132926;27;20418;-53
2022/11/02 09:41:02;;;;;;;1.03;0.40;;;;;;;30.55;28.55;95833.47;5132743;27;20498;-52
2022/11/02 09:43:40;;;;;;;0.90;0.37;;;;;;;30.99;26.71;95825.03;5131801;27;20433;-52
2022/11/02 09:46:11;;;;;;;0.50;0.50;;;;;;;30.91;26.58;95818.78;5132429;27;20426;-52
2022/11/02 09:48:43;;;;;;;3.13;0.50;;;;;;;30.89;27.03;95820.28;5132712;27;20796;-52
2022/11/02 09:51:14;;;;;;;0.83;0.73;;;;;;;30.99;26.21;95822.31;5132019;27;20430;-52
2022/11/02 09:53:53;;;;;;;0.60;0.40;;;;;;;31.27;27.57;95792.22;5132229;27;20434;-52
2022/11/02 09:56:21;;;;;;;0.60;0.30;;;;;;;33.54;24.98;95780.06;5132385;27;20470;-52
2022/11/02 09:58:55;;;;;;;0.30;0.30;;;;;;;34.19;22.76;95790.06;5132708;27;20426;-52
2022/11/02 10:01:34;;;;;;;1.13;0.30;;;;;;;34.81;22.98;95784.22;5132020;27;20430;-54
2022/11/02 10:04:34;;;;;;;0.50;0.30;;;;;;;34.64;22.45;95776.19;5132596;27;20422;-52
2022/11/02 10:07:10;;;;;;;0.40;0.40;;;;;;;33.01;24.07;95780.44;5129394;27;20437;-52
2022/11/02 10:09:50;;;;;;;0.60;0.60;;;;;;;32.84;25.65;95709.16;5132195;27;20877;-53
2022/11/02 10:12:25;;;;;;;0.50;0.40;;;;;;;33.94;22.63;95761.25;5132096;27;20441;-53
2022/11/02 10:15:02;;;;;;;2.87;0.73;;;;;;;32.91;23.74;95753.03;5132415;27;20469;-53
2022/11/02 10:17:35;;;;;;;0.50;0.50;;;;;;;33.48;23.72;95753.41;5131889;27;20418;-52
2022/11/02 10:20:11;;;;;;;10.13;3.13;;;;;;;33.11;23.59;95754.88;5132069;27;20937;-52
2022/11/02 10:22:42;;;;;;;0.60;0.57;;;;;;;33.35;23.87;95739.38;5131017;27;20937;-52
2022/11/02 10:25:16;;;;;;;0.40;0.30;;;;;;;33.09;24.59;95740.75;5131973;27;20470;-52
2022/11/02 10:27:50;;;;;;;0.73;0.73;;;;;;;32.36;25.17;95742.69;5132114;27;20426;-52
2022/11/02 10:30:20;;;;;;;1.10;0.40;;;;;;;32.84;24.09;95742.88;5132252;27;20422;-52
2022/11/02 10:32:52;;;;;;;0.50;0.50;;;;;;;33.48;24.49;95728.66;5132325;27;20603;-52
2022/11/02 10:35:32;;;;;;;1.13;1.10;;;;;;;33.89;23.29;95726.72;5135506;27;20485;-52
2022/11/02 10:38:31;;;;;;;3.53;0.67;;;;;;;33.70;23.63;95722.56;5135380;27;20985;-53
2022/11/02 10:41:15;;;;;;;0.60;0.40;;;;;;;33.68;23.50;95718.69;5135630;27;20246;-53
2022/11/02 10:43:57;;;;;;;0.60;0.40;;;;;;;33.29;22.91;95710.78;5135809;27;20184;-53
2022/11/02 10:46:41;;;;;;;2.10;0.73;;;;;;;33.54;22.81;95705.84;5135213;27;20430;-53
2022/11/02 10:49:18;;;;;;;3.47;1.20;;;;;;;33.30;23.46;95701.34;5135825;27;20192;-53
2022/11/02 10:51:46;;;;;;;2.23;0.93;;;;;;;33.96;22.57;95687.34;5135263;27;20188;-53
2022/11/02 10:54:16;;;;;;;0.67;0.57;;;;;;;34.33;22.79;95690.81;5135009;27;20187;-53
2022/11/02 10:56:56;;;;;;;0.43;0.37;;;;;;;35.26;22.00;95680.06;5134854;27;20256;-53
2022/11/02 10:59:25;;;;;;;1.00;0.50;;;;;;;34.54;22.03;95678.75;5135101;27;20188;-53
2022/11/02 11:02:10;;;;;;;0.57;0.57;;;;;;;34.59;21.95;95659.03;5135073;27;20578;-53
2022/11/02 11:04:38;;;;;;;0.30;0.30;;;;;;;34.20;22.32;95658.78;5134915;27;20191;-53
2022/11/02 11:07:13;;;;;;;0.40;0.40;;;;;;;34.34;22.57;95658.59;5135247;27;20189;-53
2022/11/02 11:09:49;;;;;;;0.50;0.47;;;;;;;35.47;22.01;95662.34;5134917;27;20195;-53
2022/11/02 11:12:23;;;;;;;0.50;0.50;;;;;;;35.58;21.92;95652.72;5135115;27;20196;-53
2022/11/02 11:14:55;;;;;;;2.22;1.55;;;;;;;35.50;21.44;95640.22;5134937;27;20774;-53
2022/11/02 11:17:43;;;;;;;0.30;0.20;;;;;;;36.55;20.41;95638.53;5134172;27;20253;-53
2022/11/02 11:20:35;;;;;;;0.50;0.43;;;;;;;35.20;22.33;95636.84;5133850;27;20199;-53
2022/11/02 11:23:20;;;;;;;0.70;0.70;;;;;;;34.68;22.69;95645.53;5135036;27;20205;-53
2022/11/02 11:25:58;;;;;;;2.47;0.85;;;;;;;36.00;21.07;95628.28;5134530;27;20216;-53
2022/11/02 11:28:32;;;;;;;0.60;0.45;;;;;;;36.54;20.98;95626.69;5134912;27;20645;-53
2022/11/02 11:31:10;;;;;;;0.40;0.30;;;;;;;36.71;23.90;95603.41;5134462;27;20229;-53
2022/11/02 11:33:44;;;;;;;0.30;0.30;;;;;;;34.52;22.67;95622.53;5133783;27;20192;-53
2022/11/02 11:36:23;;;;;;;4.20;0.40;;;;;;;33.25;23.03;95617.38;5134428;27;20201;-53
2022/11/02 11:38:55;;;;;;;1.70;1.60;;;;;;;32.45;24.35;95614.09;5134333;27;20184;-52
2022/11/02 11:41:24;;;;;;;0.70;0.70;;;;;;;31.67;25.03;95615.66;5134253;27;20195;-52
2022/11/02 11:43:55;;;;;;;0.40;0.30;;;;;;;31.80;24.72;95601.09;5133288;27;20184;-52
2022/11/02 11:46:23;;;;;;;0.40;0.40;;;;;;;31.00;26.14;95605.59;5134315;27;20428;-52
2022/11/02 11:48:54;;;;;;;0.50;0.50;;;;;;;30.52;29.91;95616.16;5134619;27;20434;-52
2022/11/02 11:51:29;;;;;;;1.03;0.97;;;;;;;29.90;27.11;95590.22;5133770;27;20426;-52
2022/11/02 11:54:24;;;;;;;0.40;0.40;;;;;;;30.53;28.06;95600.53;5134135;27;20426;-61
2022/11/02 11:56:53;;;;;;;0.50;0.47;;;;;;;29.35;28.42;95595.03;5119451;27;20477;-55
2022/11/02 11:59:28;;;;;;;9.10;0.60;;;;;;;29.85;27.93;95588.66;5133754;27;20489;-55
2022/11/02 12:02:01;;;;;;;0.47;0.27;;;;;;;29.64;28.13;95588.53;5133033;27;20432;-55
2022/11/02 12:04:33;;;;;;;0.50;0.50;;;;;;;29.76;28.17;95588.19;5133638;27;20430;-56
2022/11/02 12:07:37;;;;;;;0.90;0.90;;;;;;;29.28;34.80;95582.13;5133272;27;20430;-56
2022/11/02 12:10:16;;;;;;;1.60;0.83;;;;;;;28.71;29.51;95574.72;5131018;27;20438;-54